Data for 03/18/2016

Time Sea-Level Adjusted Pressure Absolute Pressure Temperature Relative Humidity Dew Point   
(mb) (inHg) (mb) (inHg) (C) (F) (%) (C) (F)
00:05 1024 30.24 853 25.19 -5.3 22.4 75 -9.1 15.6
00:10 1024 30.24 853 25.19 -5.6 21.9 78 -8.9 16
00:15 1024 30.24 853 25.19 -5.9 21.5 81 -8.6 16.5
00:20 1024 30.24 853 25.19 -5.8 21.6 82 -8.5 16.8
00:25 1024 30.24 853 25.19 -5.6 21.9 82 -8.3 17.1
00:30 1024 30.24 853 25.19 -5.7 21.8 82 -8.2 17.2
00:35 1024 30.24 854 25.22 -5.8 21.5 83 -8.2 17.2
00:40 1024 30.24 854 25.22 -5.9 21.3 83 -8.4 16.9
00:45 1024 30.24 853 25.19 -6.1 21.1 84 -8.4 16.9
00:50 1024 30.24 853 25.19 -6 21.1 83 -8.5 16.7
00:55 1024 30.24 853 25.19 -6.1 21 82 -8.7 16.4
01:00 1024 30.24 853 25.19 -6.3 20.7 80 -9.1 15.6
01:05 1024 30.24 853 25.19 -6.3 20.6 78 -9.5 14.8
01:10 1024 30.24 853 25.19 -6.4 20.4 76 -9.9 14.2
01:15 1024 30.24 853 25.19 -6.4 20.4 75 -10.2 13.7
01:20 1024 30.24 853 25.19 -6.6 20.2 75 -10.3 13.5
01:25 1024 30.24 853 25.19 -6.5 20.3 73 -10.5 13.1
01:30 1024 30.24 853 25.19 -6.4 20.4 72 -10.6 12.8
01:35 1024 30.24 853 25.19 -6.5 20.4 72 -10.6 12.8
01:40 1024 30.24 853 25.19 -6.6 20.1 72 -10.8 12.5
01:45 1024 30.24 854 25.22 -6.6 20.1 72 -10.8 12.6
01:50 1024 30.24 854 25.22 -6.8 19.7 73 -10.9 12.4
01:55 1024 30.24 854 25.22 -7 19.3 74 -11 12.3
02:00 1024 30.24 854 25.22 -7.2 19.1 74 -11 12.1
02:05 1024 30.24 854 25.22 -7.3 18.9 75 -11.1 12.1
02:10 1024 30.24 854 25.22 -7.3 18.9 75 -11.1 12.1
02:15 1024 30.24 854 25.22 -7.2 19.1 74 -11 12.2
02:20 1024 30.24 854 25.22 -7.2 19.1 75 -10.8 12.5
02:25 1025 30.27 854 25.22 -7.2 19.1 75 -11 12.2
02:30 1025 30.27 854 25.22 -7.1 19.2 74 -11 12.2
02:35 1025 30.27 854 25.22 -7 19.4 74 -11 12.3
02:40 1025 30.27 854 25.22 -7.1 19.2 74 -11 12.1
02:45 1025 30.27 854 25.22 -7.2 19 75 -10.9 12.3
02:50 1025 30.27 854 25.22 -7.3 18.9 75 -11 12.2
02:55 1025 30.27 854 25.22 -7.5 18.5 76 -11 12.3
03:00 1025 30.27 854 25.22 -7.5 18.5 77 -10.9 12.4
03:05 1025 30.27 854 25.22 -7.5 18.6 77 -10.9 12.5
03:10 1025 30.27 854 25.22 -7.4 18.7 78 -10.7 12.8
03:15 1025 30.27 854 25.22 -7.4 18.8 78 -10.6 12.8
03:20 1025 30.27 854 25.22 -7.4 18.8 78 -10.6 12.9
03:25 1025 30.27 854 25.22 -7.4 18.7 79 -10.5 13.1
03:30 1025 30.27 854 25.22 -7.4 18.7 79 -10.4 13.2
03:35 1025 30.27 854 25.22 -7.5 18.5 80 -10.4 13.3
03:40 1025 30.27 854 25.22 -7.4 18.6 81 -10.2 13.6
03:45 1025 30.27 854 25.22 -7.4 18.8 80 -10.2 13.7
03:50 1025 30.27 854 25.22 -7.5 18.5 81 -10.2 13.6
03:55 1025 30.27 854 25.22 -7.6 18.4 81 -10.3 13.5
04:00 1025 30.27 854 25.22 -7.5 18.6 82 -10.1 13.8
04:05 1025 30.27 854 25.22 -7.3 18.8 82 -9.9 14.1
04:10 1025 30.27 854 25.22 -7.3 18.8 82 -9.9 14.2
04:15 1025 30.27 854 25.22 -7.3 18.8 83 -9.8 14.4
04:20 1025 30.27 854 25.22 -7.2 19 83 -9.6 14.6
04:25 1025 30.27 854 25.22 -7.2 19 83 -9.7 14.6
04:30 1025 30.27 854 25.22 -7.2 19 82 -9.7 14.5
04:35 1025 30.27 854 25.22 -7.2 19 83 -9.7 14.6
04:40 1025 30.27 854 25.22 -7.2 19 83 -9.6 14.6
04:45 1025 30.27 854 25.22 -7.3 18.9 83 -9.7 14.6
04:50 1025 30.27 854 25.22 -7.2 19 83 -9.6 14.7
04:55 1025 30.27 854 25.22 -7.3 18.9 83 -9.7 14.6
05:00 1025 30.27 854 25.22 -7.4 18.7 84 -9.6 14.7
05:05 1025 30.27 854 25.22 -7.4 18.6 84 -9.6 14.7
05:10 1025 30.27 854 25.22 -7.4 18.7 84 -9.6 14.8
05:15 1025 30.27 854 25.22 -7.4 18.8 83 -9.7 14.5
05:20 1025 30.27 854 25.22 -7.2 19 82 -9.7 14.5
05:25 1025 30.27 854 25.22 -7 19.3 82 -9.7 14.6
05:30 1025 30.27 854 25.22 -6.8 19.7 81 -9.6 14.6
05:35 1025 30.27 854 25.22 -6.6 20.1 79 -9.7 14.6
05:40 1025 30.27 854 25.22 -6.7 20 80 -9.6 14.7
05:45 1025 30.27 854 25.22 -6.7 20 80 -9.5 14.9
05:50 1025 30.27 854 25.22 -6.6 20.1 80 -9.5 15
05:55 1025 30.27 854 25.22 -6.5 20.2 79 -9.6 14.7
06:00 1025 30.27 854 25.22 -6.6 20.1 79 -9.7 14.6
06:05 1025 30.27 854 25.22 -6.7 19.9 79 -9.8 14.4
06:10 1025 30.27 854 25.22 -6.6 20.1 78 -9.8 14.4
06:15 1025 30.27 854 25.22 -6.4 20.4 77 -9.8 14.3
06:20 1025 30.27 854 25.22 -6.5 20.3 78 -9.7 14.5
06:25 1025 30.27 854 25.22 -6.5 20.3 77 -9.9 14.1
06:30 1025 30.27 854 25.22 -6.5 20.2 77 -9.9 14.1
06:35 1025 30.27 854 25.22 -6.7 19.9 78 -9.9 14.1
06:40 1025 30.27 854 25.22 -6.8 19.8 78 -9.9 14.1
06:45 1025 30.27 854 25.22 -6.7 19.9 79 -9.8 14.4
06:50 1025 30.27 854 25.22 -7 19.4 81 -9.7 14.6
06:55 1025 30.27 854 25.22 -7.1 19.3 81 -9.8 14.3
07:00 1025 30.27 854 25.22 -6.9 19.6 82 -9.5 14.9
07:05 1025 30.27 854 25.22 -6.4 20.6 77 -9.7 14.5
07:10 1025 30.27 854 25.22 -6.1 21 77 -9.6 14.8
07:15 1025 30.27 854 25.22 -6.6 20.1 79 -9.7 14.5
07:20 1025 30.27 854 25.22 -6.9 19.6 78 -10 13.9
07:25 1025 30.27 854 25.22 -6.6 20.1 75 -10.3 13.5
07:30 1025 30.27 854 25.22 -5.9 21.3 74 -9.9 14.2
07:35 1025 30.27 854 25.22 -5.9 21.4 74 -9.8 14.3
07:40 1025 30.27 854 25.22 -5.4 22.3 72 -9.7 14.5
07:45 1025 30.27 854 25.22 -5.1 22.8 71 -9.5 14.8
07:50 1025 30.27 855 25.25 -5.2 22.6 71 -9.7 14.6
07:55 1025 30.27 855 25.25 -5.7 21.7 72 -10 14.1
08:00 1025 30.27 855 25.25 -5.6 21.8 72 -10 14
08:05 1025 30.27 855 25.25 -5.3 22.5 71 -9.8 14.4
08:10 1025 30.27 855 25.25 -4.9 23.1 68 -9.9 14.2
08:15 1025 30.27 855 25.25 -3.3 26.1 60 -9.9 14.2
08:20 1025 30.27 855 25.25 -2.8 26.9 60 -9.6 14.7
08:25 1025 30.27 855 25.25 -3.7 25.4 64 -9.4 15
08:30 1025 30.27 855 25.25 -4.5 23.8 67 -9.7 14.5
08:35 1025 30.27 855 25.25 -5.1 22.8 69 -9.9 14.1
08:40 1025 30.27 855 25.25 -5 23 69 -9.9 14.3
08:45 1025 30.27 855 25.25 -4.4 24.1 66 -9.8 14.4
08:50 1025 30.27 855 25.25 -4.4 24 68 -9.5 14.9
08:55 1025 30.27 855 25.25 -4.8 23.3 69 -9.7 14.6
09:00 1026 30.3 855 25.25 -4.5 23.8 67 -9.8 14.4
09:05 1026 30.3 855 25.25 -4.4 24.1 66 -9.8 14.4
09:10 1026 30.3 855 25.25 -4.7 23.5 68 -9.8 14.4
09:15 1026 30.3 855 25.25 -4.7 23.5 68 -9.7 14.5
09:20 1026 30.3 855 25.25 -4.6 23.7 68 -9.8 14.4
09:25 1026 30.3 855 25.25 -4.6 23.8 65 -10.3 13.5
09:30 1026 30.3 855 25.25 -4.4 24.1 65 -10 14.1
09:35 1026 30.3 855 25.25 -4.3 24.2 65 -9.9 14.1
09:40 1026 30.3 855 25.25 -3.9 25 65 -9.6 14.8
09:45 1026 30.3 855 25.25 -3.5 25.6 63 -9.6 14.8
09:50 1026 30.3 855 25.25 -3.3 26 64 -9.3 15.3
09:55 1026 30.3 855 25.25 -3.3 26.1 61 -9.8 14.3
10:00 1026 30.3 855 25.25 -3.5 25.6 63 -9.7 14.6
10:05 1026 30.3 855 25.25 -2.9 26.7 59 -9.9 14.2
10:10 1026 30.3 855 25.25 -2.9 26.8 56 -10.6 13
10:15 1026 30.3 855 25.25 -2.9 26.8 54 -11 12.2
10:20 1026 30.3 855 25.25 -2.9 26.8 52 -11.5 11.4
10:25 1026 30.3 855 25.25 -2.6 27.3 49 -11.9 10.6
10:30 1026 30.3 855 25.25 -2 28.5 49 -11.3 11.7
10:35 1026 30.3 855 25.25 -2 28.5 49 -11.3 11.6
10:40 1026 30.3 855 25.25 -2.4 27.6 47 -12.4 9.7
10:45 1026 30.3 855 25.25 -2.8 26.9 50 -12 10.5
10:50 1026 30.3 855 25.25 -1.9 28.6 46 -12 10.4
10:55 1026 30.3 855 25.25 -1.5 29.4 41 -13 8.7
11:00 1026 30.3 855 25.25 -2 28.4 48 -11.7 11
11:05 1026 30.3 855 25.25 -1.7 28.9 48 -11.3 11.7
11:10 1026 30.3 855 25.25 -0.6 30.9 40 -12.7 9.1
11:15 1026 30.3 855 25.25 -0.6 30.8 42 -12 10.3
11:20 1026 30.3 855 25.25 -0.5 31.1 36 -13.7 7.3
11:25 1026 30.3 855 25.25 -0.9 30.4 40 -13 8.6
11:30 1026 30.3 855 25.25 -1.2 29.8 38 -13.8 7.2
11:35 1026 30.3 855 25.25 -1.1 30 36 -14.2 6.4
11:40 1026 30.3 855 25.25 -1.6 29.2 37 -14.4 6.1
11:45 1026 30.3 855 25.25 -1.7 28.9 41 -13.3 8.1
11:50 1026 30.3 855 25.25 -1.1 30 38 -13.8 7.2
11:55 1026 30.3 855 25.25 -0.6 30.9 38 -13.3 8
12:00 1026 30.3 855 25.25 -0.5 31.1 38 -13.1 8.4
12:05 1026 30.3 855 25.25 -0.6 30.9 37 -13.8 7.2
12:10 1026 30.3 855 25.25 -0.5 31 39 -12.9 8.9
12:15 1026 30.3 855 25.25 -0.6 30.9 39 -13.1 8.5
12:20 1026 30.3 855 25.25 -0.6 30.8 42 -12.1 10.2
12:25 1026 30.3 855 25.25 -0.8 30.6 39 -13 8.6
12:30 1026 30.3 855 25.25 -0.9 30.3 44 -11.7 10.9
12:35 1026 30.3 855 25.25 -0.7 30.7 44 -11.4 11.4
12:40 1026 30.3 855 25.25 -1.4 29.6 48 -11 12.2
12:45 1026 30.3 855 25.25 -1.3 29.7 45 -11.7 10.9
12:50 1026 30.3 855 25.25 -1.6 29.1 44 -12.4 9.7
12:55 1026 30.3 855 25.25 -2 28.4 46 -12.1 10.1
13:00 1026 30.3 855 25.25 -2.1 28.2 49 -11.6 11.2
13:05 1026 30.3 855 25.25 -1 30.2 46 -11.2 11.9
13:10 1026 30.3 855 25.25 -1.5 29.4 47 -11.5 11.4
13:15 1026 30.3 855 25.25 -0.4 31.3 47 -10.3 13.5
13:20 1026 30.3 855 25.25 -0.2 31.6 46 -10.4 13.2
13:25 1026 30.3 855 25.25 -0.8 30.6 49 -10.3 13.5
13:30 1026 30.3 855 25.25 -0.2 31.7 42 -11.7 11
13:35 1026 30.3 855 25.25 -1.5 29.3 44 -12.4 9.7
13:40 1026 30.3 855 25.25 -1.4 29.4 42 -12.6 9.3
13:45 1026 30.3 855 25.25 -0.6 30.8 38 -13.1 8.3
13:50 1025 30.27 855 25.25 -0.5 31.1 36 -14 6.9
13:55 1025 30.27 855 25.25 -0.5 31.2 34 -14.7 5.6
14:00 1025 30.27 855 25.25 -1.2 29.9 34 -15.3 4.4
14:05 1025 30.27 855 25.25 -0.9 30.5 37 -13.8 7.1
14:10 1025 30.27 855 25.25 -0.4 31.3 32 -15 5
14:15 1025 30.27 855 25.25 0.3 32.6 35 -13.3 8.1
14:20 1025 30.27 855 25.25 0.1 32.2 36 -13.3 8
14:25 1025 30.27 855 25.25 -0.1 31.8 35 -13.8 7.2
14:30 1025 30.27 855 25.25 -0.3 31.5 38 -13 8.6
14:35 1025 30.27 855 25.25 -0.6 30.9 37 -13.5 7.6
14:40 1025 30.27 855 25.25 0.1 32.1 32 -14.8 5.4
14:45 1025 30.27 854 25.22 -0.4 31.3 35 -14.2 6.4
14:50 1025 30.27 854 25.22 -0.4 31.2 32 -15.3 4.5
14:55 1025 30.27 854 25.22 0.5 33 31 -14.6 5.7
15:00 1025 30.27 854 25.22 0.1 32.1 32 -14.6 5.6
15:05 1025 30.27 854 25.22 0.1 32.2 34 -14.2 6.5
15:10 1025 30.27 854 25.22 0.2 32.3 38 -12.7 9.2
15:15 1025 30.27 854 25.22 -0.5 31.1 38 -13.2 8.3
15:20 1025 30.27 854 25.22 -0.1 31.8 33 -14.5 5.9
15:25 1025 30.27 854 25.22 1 33.8 28 -15.5 4.2
15:30 1025 30.27 854 25.22 0.2 32.4 30 -15.4 4.3
15:35 1025 30.27 854 25.22 0.2 32.4 30 -15.3 4.4
15:40 1025 30.27 854 25.22 -0 31.9 30 -15.7 3.8
15:45 1025 30.27 854 25.22 0.7 33.3 29 -15.5 4.1
15:50 1025 30.27 854 25.22 1.4 34.5 29 -15 5
15:55 1025 30.27 854 25.22 1 33.8 28 -15.4 4.2
16:00 1025 30.27 854 25.22 0.7 33.2 30 -15.1 4.9
16:05 1025 30.27 854 25.22 1.7 35.1 27 -15.3 4.5
16:10 1025 30.27 854 25.22 1.3 34.3 28 -15.5 4.1
16:15 1025 30.27 854 25.22 0.5 32.8 28 -16.1 3.1
16:20 1025 30.27 854 25.22 0.9 33.6 27 -16 3.3
16:25 1025 30.27 854 25.22 1.4 34.6 26 -16 3.3
16:30 1025 30.27 854 25.22 1.6 34.8 26 -16 3.2
16:35 1025 30.27 854 25.22 1.6 34.8 26 -15.9 3.4
16:40 1025 30.27 854 25.22 1.5 34.7 27 -15.8 3.6
16:45 1025 30.27 854 25.22 1.5 34.7 26 -16.2 2.9
16:50 1025 30.27 854 25.22 1.5 34.7 25 -16.4 2.5
16:55 1025 30.27 854 25.22 1.5 34.6 25 -16.6 2.1
17:00 1025 30.27 854 25.22 1 33.8 26 -16.4 2.4
17:05 1025 30.27 854 25.22 1.4 34.5 26 -16.1 3
17:10 1025 30.27 854 25.22 1.7 35.1 24 -16.8 1.8
17:15 1025 30.27 854 25.22 1.7 35.1 25 -16.2 2.9
17:20 1025 30.27 854 25.22 1.6 34.9 25 -16.3 2.6
17:25 1025 30.27 854 25.22 1.6 34.8 25 -16.4 2.4
17:30 1025 30.27 854 25.22 1.4 34.4 26 -16.4 2.5
17:35 1025 30.27 854 25.22 1.5 34.8 25 -16.5 2.4
17:40 1025 30.27 854 25.22 1.4 34.5 24 -17.2 1.1
17:45 1025 30.27 854 25.22 0.9 33.7 26 -16.8 1.8
17:50 1025 30.27 854 25.22 0 32 28 -16.7 2
17:55 1025 30.27 854 25.22 -0.1 31.8 29 -16.4 2.6
18:00 1025 30.27 854 25.22 -0.1 31.8 28 -16.7 2
18:05 1025 30.27 854 25.22 -0.2 31.6 29 -16.2 2.8
18:10 1025 30.27 854 25.22 -0.4 31.3 29 -16.2 2.9
18:15 1025 30.27 854 25.22 -0.5 31 29 -16.3 2.6
18:20 1025 30.27 854 25.22 -0.6 30.9 31 -15.8 3.5
18:25 1025 30.27 854 25.22 -1 30.3 34 -15 5
18:30 1025 30.27 854 25.22 -1.2 29.9 34 -15.3 4.4
18:35 1025 30.27 854 25.22 -1.2 29.8 34 -15.2 4.6
18:40 1025 30.27 854 25.22 -1.5 29.4 35 -15.1 4.8
18:45 1025 30.27 854 25.22 -1.6 29.1 35 -15.3 4.4
18:50 1025 30.27 854 25.22 -1.7 28.9 34 -15.6 4
18:55 1025 30.27 854 25.22 -1.8 28.7 36 -14.9 5.3
19:00 1025 30.27 854 25.22 -2 28.3 40 -13.8 7.1
19:05 1025 30.27 854 25.22 -2.2 28 42 -13.4 8
19:10 1025 30.27 854 25.22 -2.4 27.7 46 -12.5 9.5
19:15 1025 30.27 854 25.22 -2.6 27.3 47 -12.3 9.8
19:20 1025 30.27 854 25.22 -3 26.6 48 -12.4 9.6
19:25 1025 30.27 854 25.22 -3.3 26.1 50 -12.3 9.8
19:30 1025 30.27 854 25.22 -3.5 25.8 50 -12.5 9.5
19:35 1025 30.27 854 25.22 -3.5 25.6 51 -12.4 9.8
19:40 1025 30.27 854 25.22 -4 24.8 52 -12.4 9.7
19:45 1025 30.27 854 25.22 -4.2 24.5 53 -12.5 9.5
19:50 1025 30.27 854 25.22 -4.3 24.3 52 -12.6 9.3
19:55 1025 30.27 854 25.22 -4.4 24.1 54 -12.5 9.6
20:00 1025 30.27 854 25.22 -4.5 23.9 54 -12.6 9.4
20:05 1025 30.27 854 25.22 -4.6 23.8 54 -12.6 9.3
20:10 1025 30.27 854 25.22 -4.7 23.6 54 -12.7 9.2
20:15 1025 30.27 854 25.22 -4.8 23.3 54 -12.7 9.1
20:20 1025 30.27 854 25.22 -5.1 22.9 56 -12.6 9.3
20:25 1025 30.27 855 25.25 -5.3 22.5 53 -13.3 8
20:30 1025 30.27 855 25.25 -5.3 22.4 53 -13.6 7.6
20:35 1025 30.27 855 25.25 -5.7 21.8 54 -13.6 7.6
20:40 1025 30.27 855 25.25 -5.9 21.4 55 -13.7 7.4
20:45 1025 30.27 855 25.25 -5.9 21.4 56 -13.4 7.8
20:50 1025 30.27 855 25.25 -6 21.2 55 -13.6 7.5
20:55 1025 30.27 855 25.25 -6 21.2 55 -13.6 7.5
21:00 1025 30.27 855 25.25 -5.8 21.5 53 -13.9 7
21:05 1025 30.27 855 25.25 -5.7 21.7 53 -13.8 7.2
21:10 1025 30.27 855 25.25 -5.8 21.5 54 -13.6 7.4
21:15 1025 30.27 855 25.25 -6 21.3 55 -13.7 7.3
21:20 1026 30.3 855 25.25 -6 21.1 54 -13.9 7
21:25 1026 30.3 855 25.25 -6.1 21 54 -14.1 6.7
21:30 1026 30.3 855 25.25 -6.2 20.9 55 -13.8 7.2
21:35 1026 30.3 855 25.25 -6.4 20.5 56 -13.9 7.1
21:40 1026 30.3 855 25.25 -6.4 20.5 55 -14 6.8
21:45 1026 30.3 855 25.25 -6.5 20.3 56 -14 6.9
21:50 1026 30.3 855 25.25 -6.6 20.2 55 -14.1 6.6
21:55 1025 30.27 855 25.25 -6.7 20 56 -14 6.8
22:00 1025 30.27 855 25.25 -6.8 19.7 57 -14 6.7
22:05 1026 30.3 855 25.25 -6.9 19.7 55 -14.4 6.1
22:10 1026 30.3 855 25.25 -6.9 19.6 57 -14.2 6.5
22:15 1026 30.3 855 25.25 -7 19.4 56 -14.3 6.2
22:20 1026 30.3 855 25.25 -6.9 19.5 54 -14.7 5.6
22:25 1025 30.27 855 25.25 -6.9 19.7 54 -14.6 5.7
22:30 1025 30.27 855 25.25 -6.9 19.5 55 -14.4 6
22:35 1025 30.27 855 25.25 -7.1 19.2 57 -14.3 6.2
22:40 1025 30.27 855 25.25 -7.3 18.9 57 -14.4 6.1
22:45 1025 30.27 855 25.25 -7.6 18.4 58 -14.4 6
22:50 1025 30.27 855 25.25 -7.7 18.1 57 -14.8 5.3
22:55 1025 30.27 855 25.25 -7.4 18.7 56 -14.7 5.5
23:00 1025 30.27 855 25.25 -7.4 18.7 56 -14.8 5.3
23:05 1025 30.27 855 25.25 -7.4 18.7 55 -15 5.1
23:10 1025 30.27 855 25.25 -7.4 18.6 55 -14.9 5.2
23:15 1026 30.3 855 25.25 -7.2 19 53 -15.2 4.6
23:20 1026 30.3 855 25.25 -7.1 19.1 52 -15.4 4.3
23:25 1026 30.3 855 25.25 -7.1 19.2 51 -15.6 3.9
23:30 1026 30.3 855 25.25 -7.2 19.1 52 -15.4 4.3
23:35 1026 30.3 855 25.25 -7.1 19.1 51 -15.6 3.9
23:40 1026 30.3 855 25.25 -7.2 19.1 51 -15.7 3.7
23:45 1026 30.3 855 25.25 -7.1 19.1 51 -15.6 3.9
23:50 1026 30.3 855 25.25 -6.9 19.6 50 -15.7 3.7
23:55 1026 30.3 855 25.25 -7 19.5 48 -16.1 3
24:00 1026 30.3 855 25.25 -7 19.4 48 -16.2 2.8